sensor_id;sensor_type;location;lat;lon;timestamp;pressure;altitude;pressure_sealevel;temperature
45701;BMP280;36277;32.852;-116.998;2022-09-27T00:01:07;99549.03;;;26.32
45701;BMP280;36277;32.852;-116.998;2022-09-27T00:03:34;99542.59;;;26.44
45701;BMP280;36277;32.852;-116.998;2022-09-27T00:06:23;99535.63;;;26.66
45701;BMP280;36277;32.852;-116.998;2022-09-27T00:08:50;99541.44;;;26.82
45701;BMP280;36277;32.852;-116.998;2022-09-27T00:11:35;99536.34;;;27.04
45701;BMP280;36277;32.852;-116.998;2022-09-27T00:14:04;99540.94;;;27.16
45701;BMP280;36277;32.852;-116.998;2022-09-27T00:16:34;99555.06;;;27.33
45701;BMP280;36277;32.852;-116.998;2022-09-27T00:19:04;99553.25;;;27.45
45701;BMP280;36277;32.852;-116.998;2022-09-27T00:21:30;99554.41;;;27.55
45701;BMP280;36277;32.852;-116.998;2022-09-27T00:23:58;99553.22;;;27.69
45701;BMP280;36277;32.852;-116.998;2022-09-27T00:26:24;99553.53;;;27.79
45701;BMP280;36277;32.852;-116.998;2022-09-27T00:28:51;99559.16;;;27.90
45701;BMP280;36277;32.852;-116.998;2022-09-27T00:31:25;99551.97;;;28.01
45701;BMP280;36277;32.852;-116.998;2022-09-27T00:33:55;99554.19;;;28.10
45701;BMP280;36277;32.852;-116.998;2022-09-27T00:36:22;99558.34;;;28.19
45701;BMP280;36277;32.852;-116.998;2022-09-27T00:38:51;99550.56;;;28.28
45701;BMP280;36277;32.852;-116.998;2022-09-27T00:41:30;99551.22;;;28.41
45701;BMP280;36277;32.852;-116.998;2022-09-27T00:43:59;99543.03;;;28.46
45701;BMP280;36277;32.852;-116.998;2022-09-27T00:46:30;99543.81;;;28.53
45701;BMP280;36277;32.852;-116.998;2022-09-27T00:51:54;99542.88;;;28.70
45701;BMP280;36277;32.852;-116.998;2022-09-27T00:54:24;99541.09;;;28.76
45701;BMP280;36277;32.852;-116.998;2022-09-27T00:56:52;99537.34;;;28.82
45701;BMP280;36277;32.852;-116.998;2022-09-27T00:59:40;99537.88;;;28.90
45701;BMP280;36277;32.852;-116.998;2022-09-27T01:02:09;99540.16;;;28.93
45701;BMP280;36277;32.852;-116.998;2022-09-27T01:04:37;99535.13;;;29.02
45701;BMP280;36277;32.852;-116.998;2022-09-27T01:07:04;99532.69;;;29.05
45701;BMP280;36277;32.852;-116.998;2022-09-27T01:09:31;99525.31;;;29.11
45701;BMP280;36277;32.852;-116.998;2022-09-27T01:15:42;99543.09;;;29.21
45701;BMP280;36277;32.852;-116.998;2022-09-27T01:31:18;99551.97;;;29.53
45701;BMP280;36277;32.852;-116.998;2022-09-27T01:36:53;99549.25;;;29.35
45701;BMP280;36277;32.852;-116.998;2022-09-27T01:45:16;99550.22;;;28.65
45701;BMP280;36277;32.852;-116.998;2022-09-27T01:47:55;99554.41;;;28.56
45701;BMP280;36277;32.852;-116.998;2022-09-27T01:50:45;99555.56;;;28.67
45701;BMP280;36277;32.852;-116.998;2022-09-27T01:55:47;99568.59;;;28.77
45701;BMP280;36277;32.852;-116.998;2022-09-27T01:58:25;99571.69;;;28.87
45701;BMP280;36277;32.852;-116.998;2022-09-27T02:00:54;99574.53;;;28.81
45701;BMP280;36277;32.852;-116.998;2022-09-27T02:03:27;99578.81;;;28.54
45701;BMP280;36277;32.852;-116.998;2022-09-27T02:06:45;99574.66;;;28.45
45701;BMP280;36277;32.852;-116.998;2022-09-27T02:08:54;99579.31;;;28.33
45701;BMP280;36277;32.852;-116.998;2022-09-27T02:11:23;99578.38;;;28.21
45701;BMP280;36277;32.852;-116.998;2022-09-27T02:16:51;99579.41;;;27.91
45701;BMP280;36277;32.852;-116.998;2022-09-27T02:19:33;99584.41;;;27.82
45701;BMP280;36277;32.852;-116.998;2022-09-27T02:27:35;99595.91;;;27.44
45701;BMP280;36277;32.852;-116.998;2022-09-27T02:30:09;99590.47;;;27.31
45701;BMP280;36277;32.852;-116.998;2022-09-27T02:32:37;99589.34;;;27.14
45701;BMP280;36277;32.852;-116.998;2022-09-27T02:35:15;99599.22;;;27.03
45701;BMP280;36277;32.852;-116.998;2022-09-27T02:37:42;99599.47;;;26.95
45701;BMP280;36277;32.852;-116.998;2022-09-27T02:40:09;99604.47;;;26.87
45701;BMP280;36277;32.852;-116.998;2022-09-27T02:42:36;99602.56;;;26.81
45701;BMP280;36277;32.852;-116.998;2022-09-27T02:45:04;99610.31;;;26.72
45701;BMP280;36277;32.852;-116.998;2022-09-27T02:50:53;99609.78;;;26.51
45701;BMP280;36277;32.852;-116.998;2022-09-27T02:53:40;99605.16;;;26.45
45701;BMP280;36277;32.852;-116.998;2022-09-27T02:56:29;99614.13;;;26.34
45701;BMP280;36277;32.852;-116.998;2022-09-27T03:04:14;99616.09;;;26.71
45701;BMP280;36277;32.852;-116.998;2022-09-27T03:06:45;99624.16;;;26.72
45701;BMP280;36277;32.852;-116.998;2022-09-27T03:09:20;99623.75;;;26.69
45701;BMP280;36277;32.852;-116.998;2022-09-27T03:11:47;99628.47;;;26.62
45701;BMP280;36277;32.852;-116.998;2022-09-27T03:14:14;99627.50;;;26.43
45701;BMP280;36277;32.852;-116.998;2022-09-27T03:16:40;99629.66;;;26.35
45701;BMP280;36277;32.852;-116.998;2022-09-27T03:19:08;99637.31;;;26.33
45701;BMP280;36277;32.852;-116.998;2022-09-27T03:21:34;99636.97;;;26.23
45701;BMP280;36277;32.852;-116.998;2022-09-27T03:24:01;99632.22;;;26.30
45701;BMP280;36277;32.852;-116.998;2022-09-27T03:26:27;99642.22;;;26.44
45701;BMP280;36277;32.852;-116.998;2022-09-27T03:28:54;99638.09;;;26.53
45701;BMP280;36277;32.852;-116.998;2022-09-27T03:31:20;99644.03;;;26.63
45701;BMP280;36277;32.852;-116.998;2022-09-27T03:33:46;99648.38;;;26.77
45701;BMP280;36277;32.852;-116.998;2022-09-27T03:36:12;99645.09;;;26.62
45701;BMP280;36277;32.852;-116.998;2022-09-27T03:38:38;99661.31;;;26.52
45701;BMP280;36277;32.852;-116.998;2022-09-27T03:41:05;99667.75;;;26.46
45701;BMP280;36277;32.852;-116.998;2022-09-27T03:43:31;99669.47;;;26.34
45701;BMP280;36277;32.852;-116.998;2022-09-27T03:45:57;99675.28;;;26.13
45701;BMP280;36277;32.852;-116.998;2022-09-27T03:48:24;99682.47;;;26.27
45701;BMP280;36277;32.852;-116.998;2022-09-27T03:50:50;99671.56;;;26.38
45701;BMP280;36277;32.852;-116.998;2022-09-27T03:53:17;99670.09;;;26.49
45701;BMP280;36277;32.852;-116.998;2022-09-27T03:55:45;99674.06;;;26.59
45701;BMP280;36277;32.852;-116.998;2022-09-27T03:58:12;99670.41;;;26.65
45701;BMP280;36277;32.852;-116.998;2022-09-27T04:00:39;99675.97;;;26.59
45701;BMP280;36277;32.852;-116.998;2022-09-27T04:03:06;99676.84;;;26.53
45701;BMP280;36277;32.852;-116.998;2022-09-27T04:05:32;99675.81;;;26.41
45701;BMP280;36277;32.852;-116.998;2022-09-27T04:07:58;99679.28;;;26.24
45701;BMP280;36277;32.852;-116.998;2022-09-27T04:10:25;99685.06;;;26.16
45701;BMP280;36277;32.852;-116.998;2022-09-27T04:12:51;99689.31;;;26.18
45701;BMP280;36277;32.852;-116.998;2022-09-27T04:15:17;99691.19;;;26.31
45701;BMP280;36277;32.852;-116.998;2022-09-27T04:17:44;99686.50;;;26.38
45701;BMP280;36277;32.852;-116.998;2022-09-27T04:20:10;99685.63;;;26.50
45701;BMP280;36277;32.852;-116.998;2022-09-27T04:22:40;99685.16;;;26.59
45701;BMP280;36277;32.852;-116.998;2022-09-27T04:25:08;99677.09;;;26.38
45701;BMP280;36277;32.852;-116.998;2022-09-27T04:27:35;99678.47;;;26.23
45701;BMP280;36277;32.852;-116.998;2022-09-27T04:30:02;99680.41;;;26.03
45701;BMP280;36277;32.852;-116.998;2022-09-27T04:32:28;99678.16;;;25.81
45701;BMP280;36277;32.852;-116.998;2022-09-27T04:34:54;99678.38;;;25.60
45701;BMP280;36277;32.852;-116.998;2022-09-27T04:37:39;99678.53;;;25.78
45701;BMP280;36277;32.852;-116.998;2022-09-27T04:40:06;99680.44;;;25.97
45701;BMP280;36277;32.852;-116.998;2022-09-27T04:42:33;99682.56;;;26.08
45701;BMP280;36277;32.852;-116.998;2022-09-27T04:44:59;99690.78;;;26.21
45701;BMP280;36277;32.852;-116.998;2022-09-27T04:47:25;99677.78;;;26.28
45701;BMP280;36277;32.852;-116.998;2022-09-27T04:49:51;99682.44;;;26.40
45701;BMP280;36277;32.852;-116.998;2022-09-27T04:52:18;99675.47;;;26.25
45701;BMP280;36277;32.852;-116.998;2022-09-27T04:54:44;99678.06;;;26.00
45701;BMP280;36277;32.852;-116.998;2022-09-27T04:57:10;99674.31;;;25.62
45701;BMP280;36277;32.852;-116.998;2022-09-27T04:59:37;99675.59;;;25.60
45701;BMP280;36277;32.852;-116.998;2022-09-27T05:02:05;99673.44;;;25.75
45701;BMP280;36277;32.852;-116.998;2022-09-27T05:04:31;99677.25;;;25.87
45701;BMP280;36277;32.852;-116.998;2022-09-27T05:06:57;99665.16;;;25.94
45701;BMP280;36277;32.852;-116.998;2022-09-27T05:09:23;99671.69;;;26.06
45701;BMP280;36277;32.852;-116.998;2022-09-27T05:11:50;99674.66;;;26.11
45701;BMP280;36277;32.852;-116.998;2022-09-27T05:14:16;99672.59;;;25.87
45701;BMP280;36277;32.852;-116.998;2022-09-27T05:16:42;99665.78;;;25.77
45701;BMP280;36277;32.852;-116.998;2022-09-27T05:19:09;99669.84;;;25.61
45701;BMP280;36277;32.852;-116.998;2022-09-27T05:21:35;99666.03;;;25.36
45701;BMP280;36277;32.852;-116.998;2022-09-27T05:24:01;99664.13;;;25.37
45701;BMP280;36277;32.852;-116.998;2022-09-27T05:26:27;99662.84;;;25.27
45701;BMP280;36277;32.852;-116.998;2022-09-27T05:28:54;99661.13;;;25.06
45701;BMP280;36277;32.852;-116.998;2022-09-27T05:31:20;99665.97;;;24.98
45701;BMP280;36277;32.852;-116.998;2022-09-27T05:33:46;99669.97;;;24.76
45701;BMP280;36277;32.852;-116.998;2022-09-27T05:36:12;99666.56;;;24.61
45701;BMP280;36277;32.852;-116.998;2022-09-27T05:38:39;99671.25;;;24.67
45701;BMP280;36277;32.852;-116.998;2022-09-27T05:41:08;99661.63;;;24.50
45701;BMP280;36277;32.852;-116.998;2022-09-27T05:43:34;99667.78;;;24.52
45701;BMP280;36277;32.852;-116.998;2022-09-27T05:46:01;99668.44;;;24.54
45701;BMP280;36277;32.852;-116.998;2022-09-27T05:48:27;99666.84;;;24.32
45701;BMP280;36277;32.852;-116.998;2022-09-27T05:50:55;99667.97;;;24.44
45701;BMP280;36277;32.852;-116.998;2022-09-27T05:53:21;99663.72;;;24.48
45701;BMP280;36277;32.852;-116.998;2022-09-27T05:55:48;99663.56;;;24.56
45701;BMP280;36277;32.852;-116.998;2022-09-27T05:58:14;99662.31;;;24.71
45701;BMP280;36277;32.852;-116.998;2022-09-27T06:00:41;99659.97;;;24.62
45701;BMP280;36277;32.852;-116.998;2022-09-27T06:03:10;99663.56;;;24.56
45701;BMP280;36277;32.852;-116.998;2022-09-27T06:05:38;99659.84;;;24.29
45701;BMP280;36277;32.852;-116.998;2022-09-27T06:08:07;99662.09;;;24.13
45701;BMP280;36277;32.852;-116.998;2022-09-27T06:10:35;99663.28;;;23.98
45701;BMP280;36277;32.852;-116.998;2022-09-27T06:13:07;99663.41;;;23.83
45701;BMP280;36277;32.852;-116.998;2022-09-27T06:15:34;99667.84;;;23.78
45701;BMP280;36277;32.852;-116.998;2022-09-27T06:18:13;99663.94;;;24.00
45701;BMP280;36277;32.852;-116.998;2022-09-27T06:20:41;99672.66;;;24.10
45701;BMP280;36277;32.852;-116.998;2022-09-27T06:23:10;99668.94;;;24.23
45701;BMP280;36277;32.852;-116.998;2022-09-27T06:25:38;99658.31;;;24.27
45701;BMP280;36277;32.852;-116.998;2022-09-27T06:28:05;99652.56;;;24.22
45701;BMP280;36277;32.852;-116.998;2022-09-27T06:30:31;99659.94;;;24.09
45701;BMP280;36277;32.852;-116.998;2022-09-27T06:32:59;99656.69;;;23.92
45701;BMP280;36277;32.852;-116.998;2022-09-27T06:35:26;99656.81;;;23.78
45701;BMP280;36277;32.852;-116.998;2022-09-27T06:37:53;99658.31;;;23.80
45701;BMP280;36277;32.852;-116.998;2022-09-27T06:40:21;99648.84;;;23.96
45701;BMP280;36277;32.852;-116.998;2022-09-27T06:42:49;99653.16;;;24.05
45701;BMP280;36277;32.852;-116.998;2022-09-27T06:45:15;99644.09;;;24.17
45701;BMP280;36277;32.852;-116.998;2022-09-27T06:47:41;99638.84;;;24.28
45701;BMP280;36277;32.852;-116.998;2022-09-27T06:50:08;99637.56;;;24.37
45701;BMP280;36277;32.852;-116.998;2022-09-27T06:52:35;99631.84;;;24.32
45701;BMP280;36277;32.852;-116.998;2022-09-27T06:55:04;99635.34;;;24.07
45701;BMP280;36277;32.852;-116.998;2022-09-27T06:57:31;99647.19;;;23.67
45701;BMP280;36277;32.852;-116.998;2022-09-27T07:00:15;99649.50;;;23.70
45701;BMP280;36277;32.852;-116.998;2022-09-27T07:02:56;99645.69;;;23.71
45701;BMP280;36277;32.852;-116.998;2022-09-27T07:05:27;99643.06;;;23.84
45701;BMP280;36277;32.852;-116.998;2022-09-27T07:07:57;99648.84;;;23.96
45701;BMP280;36277;32.852;-116.998;2022-09-27T07:10:25;99636.63;;;24.05
45701;BMP280;36277;32.852;-116.998;2022-09-27T07:12:52;99634.53;;;24.13
45701;BMP280;36277;32.852;-116.998;2022-09-27T07:15:20;99646.22;;;24.21
45701;BMP280;36277;32.852;-116.998;2022-09-27T07:17:54;99646.88;;;24.30
45701;BMP280;36277;32.852;-116.998;2022-09-27T07:20:21;99644.38;;;24.41
45701;BMP280;36277;32.852;-116.998;2022-09-27T07:22:47;99648.03;;;23.95
45701;BMP280;36277;32.852;-116.998;2022-09-27T07:25:14;99642.63;;;23.81
45701;BMP280;36277;32.852;-116.998;2022-09-27T07:27:40;99650.16;;;23.72
45701;BMP280;36277;32.852;-116.998;2022-09-27T07:30:08;99658.25;;;23.74
45701;BMP280;36277;32.852;-116.998;2022-09-27T07:32:35;99660.41;;;23.78
45701;BMP280;36277;32.852;-116.998;2022-09-27T07:35:06;99657.75;;;23.91
45701;BMP280;36277;32.852;-116.998;2022-09-27T07:37:34;99654.38;;;23.96
45701;BMP280;36277;32.852;-116.998;2022-09-27T07:40:02;99652.28;;;24.04
45701;BMP280;36277;32.852;-116.998;2022-09-27T07:42:32;99654.00;;;24.12
45701;BMP280;36277;32.852;-116.998;2022-09-27T07:44:58;99653.22;;;24.24
45701;BMP280;36277;32.852;-116.998;2022-09-27T07:47:25;99650.94;;;24.40
45701;BMP280;36277;32.852;-116.998;2022-09-27T07:49:52;99650.81;;;24.48
45701;BMP280;36277;32.852;-116.998;2022-09-27T07:52:19;99639.38;;;24.51
45701;BMP280;36277;32.852;-116.998;2022-09-27T07:54:45;99639.69;;;24.35
45701;BMP280;36277;32.852;-116.998;2022-09-27T07:57:13;99640.44;;;24.10
45701;BMP280;36277;32.852;-116.998;2022-09-27T07:59:39;99642.50;;;23.95
45701;BMP280;36277;32.852;-116.998;2022-09-27T08:02:09;99649.22;;;23.86
45701;BMP280;36277;32.852;-116.998;2022-09-27T08:04:38;99647.16;;;23.95
45701;BMP280;36277;32.852;-116.998;2022-09-27T08:07:04;99647.19;;;24.01
45701;BMP280;36277;32.852;-116.998;2022-09-27T08:09:30;99649.53;;;24.04
45701;BMP280;36277;32.852;-116.998;2022-09-27T08:14:23;99646.00;;;24.23
45701;BMP280;36277;32.852;-116.998;2022-09-27T08:16:49;99641.34;;;24.17
45701;BMP280;36277;32.852;-116.998;2022-09-27T08:19:16;99652.81;;;24.27
45701;BMP280;36277;32.852;-116.998;2022-09-27T08:21:43;99649.00;;;24.34
45701;BMP280;36277;32.852;-116.998;2022-09-27T08:24:09;99657.75;;;24.38
45701;BMP280;36277;32.852;-116.998;2022-09-27T08:26:35;99654.34;;;24.42
45701;BMP280;36277;32.852;-116.998;2022-09-27T08:29:01;99646.31;;;24.41
45701;BMP280;36277;32.852;-116.998;2022-09-27T08:31:28;99645.97;;;24.10
45701;BMP280;36277;32.852;-116.998;2022-09-27T08:33:54;99651.59;;;23.96
45701;BMP280;36277;32.852;-116.998;2022-09-27T08:36:21;99662.78;;;23.88
45701;BMP280;36277;32.852;-116.998;2022-09-27T08:38:49;99658.97;;;23.89
45701;BMP280;36277;32.852;-116.998;2022-09-27T08:41:26;99654.78;;;23.93
45701;BMP280;36277;32.852;-116.998;2022-09-27T08:44:06;99657.34;;;23.94
45701;BMP280;36277;32.852;-116.998;2022-09-27T08:50:01;99660.28;;;23.93
45701;BMP280;36277;32.852;-116.998;2022-09-27T08:52:17;99659.94;;;24.09
45701;BMP280;36277;32.852;-116.998;2022-09-27T08:57:13;99659.59;;;24.24
45701;BMP280;36277;32.852;-116.998;2022-09-27T08:59:46;99661.53;;;24.30
45701;BMP280;36277;32.852;-116.998;2022-09-27T09:02:18;99666.44;;;24.35
45701;BMP280;36277;32.852;-116.998;2022-09-27T09:04:48;99662.63;;;24.36
45701;BMP280;36277;32.852;-116.998;2022-09-27T09:16:17;99657.16;;;24.02
45701;BMP280;36277;32.852;-116.998;2022-09-27T09:19:27;99663.16;;;23.78
45701;BMP280;36277;32.852;-116.998;2022-09-27T09:25:20;99655.56;;;23.80
45701;BMP280;36277;32.852;-116.998;2022-09-27T09:28:20;99651.34;;;23.84
45701;BMP280;36277;32.852;-116.998;2022-09-27T09:33:49;99657.34;;;23.94
45701;BMP280;36277;32.852;-116.998;2022-09-27T09:38:44;99648.91;;;24.09
45701;BMP280;36277;32.852;-116.998;2022-09-27T09:41:20;99649.41;;;24.25
45701;BMP280;36277;32.852;-116.998;2022-09-27T09:43:49;99642.16;;;24.17
45701;BMP280;36277;32.852;-116.998;2022-09-27T09:46:26;99647.28;;;24.27
45701;BMP280;36277;32.852;-116.998;2022-09-27T09:49:24;99645.19;;;24.29
45701;BMP280;36277;32.852;-116.998;2022-09-27T09:51:52;99639.03;;;24.27
45701;BMP280;36277;32.852;-116.998;2022-09-27T09:54:29;99642.88;;;24.32
45701;BMP280;36277;32.852;-116.998;2022-09-27T09:59:41;99636.09;;;24.35
45701;BMP280;36277;32.852;-116.998;2022-09-27T10:02:34;99633.22;;;24.09
45701;BMP280;36277;32.852;-116.998;2022-09-27T10:05:02;99638.41;;;23.85
45701;BMP280;36277;32.852;-116.998;2022-09-27T10:07:29;99637.97;;;23.81
45701;BMP280;36277;32.852;-116.998;2022-09-27T10:13:20;99636.91;;;23.82
45701;BMP280;36277;32.852;-116.998;2022-09-27T10:15:55;99638.47;;;23.91
45701;BMP280;36277;32.852;-116.998;2022-09-27T10:18:25;99631.88;;;23.92
45701;BMP280;36277;32.852;-116.998;2022-09-27T10:20:59;99638.91;;;24.01
45701;BMP280;36277;32.852;-116.998;2022-09-27T10:23:27;99635.91;;;23.96
45701;BMP280;36277;32.852;-116.998;2022-09-27T10:25:57;99636.63;;;24.05
45701;BMP280;36277;32.852;-116.998;2022-09-27T10:31:08;99636.22;;;24.14
45701;BMP280;36277;32.852;-116.998;2022-09-27T10:33:59;99630.31;;;24.17
45701;BMP280;36277;32.852;-116.998;2022-09-27T10:36:29;99627.31;;;24.18
45701;BMP280;36277;32.852;-116.998;2022-09-27T10:39:01;99639.25;;;24.25
45701;BMP280;36277;32.852;-116.998;2022-09-27T10:41:37;99622.28;;;24.28
45701;BMP280;36277;32.852;-116.998;2022-09-27T10:44:25;99618.25;;;24.31
45701;BMP280;36277;32.852;-116.998;2022-09-27T10:46:54;99620.16;;;24.30
45701;BMP280;36277;32.852;-116.998;2022-09-27T10:49:33;99617.63;;;24.35
45701;BMP280;36277;32.852;-116.998;2022-09-27T10:52:15;99621.66;;;24.39
45701;BMP280;36277;32.852;-116.998;2022-09-27T10:54:55;99612.97;;;24.36
45701;BMP280;36277;32.852;-116.998;2022-09-27T10:57:25;99619.47;;;24.22
45701;BMP280;36277;32.852;-116.998;2022-09-27T10:59:59;99621.53;;;24.01
45701;BMP280;36277;32.852;-116.998;2022-09-27T11:02:33;99622.13;;;23.96
45701;BMP280;36277;32.852;-116.998;2022-09-27T11:07:46;99618.13;;;23.99
45701;BMP280;36277;32.852;-116.998;2022-09-27T11:10:26;99626.00;;;24.08
45701;BMP280;36277;32.852;-116.998;2022-09-27T11:16:17;99629.41;;;24.10
45701;BMP280;36277;32.852;-116.998;2022-09-27T11:24:56;99634.94;;;24.16
45701;BMP280;36277;32.852;-116.998;2022-09-27T11:27:44;99630.31;;;24.17
45701;BMP280;36277;32.852;-116.998;2022-09-27T11:30:57;99624.81;;;24.23
45701;BMP280;36277;32.852;-116.998;2022-09-27T11:33:57;99614.84;;;24.22
45701;BMP280;36277;32.852;-116.998;2022-09-27T11:36:51;99620.13;;;24.24
45701;BMP280;36277;32.852;-116.998;2022-09-27T11:39:32;99616.78;;;24.28
45701;BMP280;36277;32.852;-116.998;2022-09-27T11:45:14;99630.16;;;24.31
45701;BMP280;36277;32.852;-116.998;2022-09-27T12:01:14;99628.75;;;24.55
45701;BMP280;36277;32.852;-116.998;2022-09-27T12:06:40;99617.72;;;24.55
45701;BMP280;36277;32.852;-116.998;2022-09-27T12:09:14;99624.28;;;24.47
45701;BMP280;36277;32.852;-116.998;2022-09-27T12:11:54;99618.94;;;24.46
45701;BMP280;36277;32.852;-116.998;2022-09-27T12:17:36;99627.00;;;24.41
45701;BMP280;36277;32.852;-116.998;2022-09-27T12:20:24;99621.66;;;24.39
45701;BMP280;36277;32.852;-116.998;2022-09-27T12:25:40;99624.72;;;24.04
45701;BMP280;36277;32.852;-116.998;2022-09-27T12:31:03;99634.25;;;24.02
45701;BMP280;36277;32.852;-116.998;2022-09-27T12:36:32;99639.56;;;24.03
45701;BMP280;36277;32.852;-116.998;2022-09-27T12:42:05;99635.34;;;24.07
45701;BMP280;36277;32.852;-116.998;2022-09-27T12:44:39;99634.94;;;24.10
45701;BMP280;36277;32.852;-116.998;2022-09-27T12:52:40;99648.75;;;24.23
45701;BMP280;36277;32.852;-116.998;2022-09-27T13:09:26;99646.72;;;24.44
45701;BMP280;36277;32.852;-116.998;2022-09-27T13:12:11;99643.97;;;24.44
45701;BMP280;36277;32.852;-116.998;2022-09-27T13:14:53;99646.53;;;24.46
45701;BMP280;36277;32.852;-116.998;2022-09-27T13:23:49;99652.47;;;24.43
45701;BMP280;36277;32.852;-116.998;2022-09-27T13:26:20;99653.94;;;24.45
45701;BMP280;36277;32.852;-116.998;2022-09-27T13:31:13;99658.41;;;24.46
45701;BMP280;36277;32.852;-116.998;2022-09-27T13:33:43;99659.47;;;24.45
45701;BMP280;36277;32.852;-116.998;2022-09-27T13:36:30;99662.06;;;24.53
45701;BMP280;36277;32.852;-116.998;2022-09-27T13:44:38;99658.44;;;24.53
45701;BMP280;36277;32.852;-116.998;2022-09-27T13:53:11;99672.66;;;24.50
45701;BMP280;36277;32.852;-116.998;2022-09-27T13:55:44;99674.53;;;24.43
45701;BMP280;36277;32.852;-116.998;2022-09-27T13:58:34;99678.69;;;24.26
45701;BMP280;36277;32.852;-116.998;2022-09-27T14:01:29;99672.44;;;23.77
45701;BMP280;36277;32.852;-116.998;2022-09-27T14:04:20;99686.91;;;23.79
45701;BMP280;36277;32.852;-116.998;2022-09-27T14:06:55;99676.00;;;23.92
45701;BMP280;36277;32.852;-116.998;2022-09-27T14:09:31;99685.19;;;24.06
45701;BMP280;36277;32.852;-116.998;2022-09-27T14:12:05;99682.22;;;24.13
45701;BMP280;36277;32.852;-116.998;2022-09-27T14:14:35;99693.09;;;24.21
45701;BMP280;36277;32.852;-116.998;2022-09-27T14:17:05;99696.53;;;24.30
45701;BMP280;36277;32.852;-116.998;2022-09-27T14:19:32;99697.19;;;24.32
45701;BMP280;36277;32.852;-116.998;2022-09-27T14:22:03;99688.91;;;24.38
45701;BMP280;36277;32.852;-116.998;2022-09-27T14:24:31;99697.81;;;24.34
45701;BMP280;36277;32.852;-116.998;2022-09-27T14:29:56;99695.94;;;23.94
45701;BMP280;36277;32.852;-116.998;2022-09-27T14:32:25;99701.75;;;23.78
45701;BMP280;36277;32.852;-116.998;2022-09-27T14:35:07;99695.97;;;24.01
45701;BMP280;36277;32.852;-116.998;2022-09-27T14:38:00;99695.59;;;24.10
45701;BMP280;36277;32.852;-116.998;2022-09-27T14:40:27;99703.72;;;24.24
45701;BMP280;36277;32.852;-116.998;2022-09-27T14:42:57;99707.16;;;24.33
45701;BMP280;36277;32.852;-116.998;2022-09-27T14:47:59;99711.88;;;24.45
45701;BMP280;36277;32.852;-116.998;2022-09-27T14:50:28;99706.66;;;24.57
45701;BMP280;36277;32.852;-116.998;2022-09-27T14:52:56;99709.81;;;24.54
45701;BMP280;36277;32.852;-116.998;2022-09-27T14:55:26;99711.03;;;24.45
45701;BMP280;36277;32.852;-116.998;2022-09-27T14:57:58;99715.03;;;24.42
45701;BMP280;36277;32.852;-116.998;2022-09-27T15:00:32;99713.97;;;24.37
45701;BMP280;36277;32.852;-116.998;2022-09-27T15:03:04;99708.97;;;24.13
45701;BMP280;36277;32.852;-116.998;2022-09-27T15:05:34;99714.63;;;24.05
45701;BMP280;36277;32.852;-116.998;2022-09-27T15:08:05;99711.91;;;24.12
45701;BMP280;36277;32.852;-116.998;2022-09-27T15:10:34;99709.63;;;24.15
45701;BMP280;36277;32.852;-116.998;2022-09-27T15:13:03;99709.88;;;24.26
45701;BMP280;36277;32.852;-116.998;2022-09-27T15:15:35;99708.88;;;24.40
45701;BMP280;36277;32.852;-116.998;2022-09-27T15:21:04;99727.47;;;24.19
45701;BMP280;36277;32.852;-116.998;2022-09-27T15:23:42;99722.00;;;23.98
45701;BMP280;36277;32.852;-116.998;2022-09-27T15:26:22;99726.38;;;23.80
45701;BMP280;36277;32.852;-116.998;2022-09-27T15:28:51;99726.41;;;23.86
45701;BMP280;36277;32.852;-116.998;2022-09-27T15:31:28;99725.69;;;24.12
45701;BMP280;36277;32.852;-116.998;2022-09-27T15:33:55;99718.53;;;24.17
45701;BMP280;36277;32.852;-116.998;2022-09-27T15:39:18;99724.59;;;24.40
45701;BMP280;36277;32.852;-116.998;2022-09-27T15:42:10;99721.09;;;24.25
45701;BMP280;36277;32.852;-116.998;2022-09-27T15:44:48;99721.34;;;23.96
45701;BMP280;36277;32.852;-116.998;2022-09-27T15:52:52;99716.31;;;24.00
45701;BMP280;36277;32.852;-116.998;2022-09-27T15:55:26;99727.47;;;24.19
45701;BMP280;36277;32.852;-116.998;2022-09-27T15:58:02;99720.50;;;24.29
45701;BMP280;36277;32.852;-116.998;2022-09-27T16:00:30;99719.88;;;24.34
45701;BMP280;36277;32.852;-116.998;2022-09-27T16:02:56;99720.38;;;24.44
45701;BMP280;36277;32.852;-116.998;2022-09-27T16:05:23;99724.25;;;24.56
45701;BMP280;36277;32.852;-116.998;2022-09-27T16:07:52;99723.03;;;24.65
45701;BMP280;36277;32.852;-116.998;2022-09-27T16:10:21;99716.25;;;24.74
45701;BMP280;36277;32.852;-116.998;2022-09-27T16:12:48;99718.19;;;24.80
45701;BMP280;36277;32.852;-116.998;2022-09-27T16:15:16;99717.78;;;24.89
45701;BMP280;36277;32.852;-116.998;2022-09-27T16:17:42;99718.88;;;24.95
45701;BMP280;36277;32.852;-116.998;2022-09-27T16:20:18;99710.34;;;24.83
45701;BMP280;36277;32.852;-116.998;2022-09-27T16:22:44;99712.16;;;24.57
45701;BMP280;36277;32.852;-116.998;2022-09-27T16:25:11;99721.59;;;24.35
45701;BMP280;36277;32.852;-116.998;2022-09-27T16:27:38;99717.25;;;24.13
45701;BMP280;36277;32.852;-116.998;2022-09-27T16:30:04;99714.72;;;24.18
45701;BMP280;36277;32.852;-116.998;2022-09-27T16:32:31;99709.25;;;24.24
45701;BMP280;36277;32.852;-116.998;2022-09-27T16:34:57;99713.97;;;24.37
45701;BMP280;36277;32.852;-116.998;2022-09-27T16:37:23;99712.97;;;24.51
45701;BMP280;36277;32.852;-116.998;2022-09-27T16:39:50;99706.47;;;24.65
45701;BMP280;36277;32.852;-116.998;2022-09-27T16:42:17;99709.06;;;24.79
45701;BMP280;36277;32.852;-116.998;2022-09-27T16:44:43;99713.72;;;24.85
45701;BMP280;36277;32.852;-116.998;2022-09-27T16:47:10;99711.19;;;24.77
45701;BMP280;36277;32.852;-116.998;2022-09-27T16:49:36;99697.97;;;24.66
45701;BMP280;36277;32.852;-116.998;2022-09-27T16:52:20;99712.50;;;24.41
45701;BMP280;36277;32.852;-116.998;2022-09-27T16:54:46;99709.22;;;24.18
45701;BMP280;36277;32.852;-116.998;2022-09-27T16:57:13;99706.63;;;24.10
45701;BMP280;36277;32.852;-116.998;2022-09-27T16:59:39;99708.56;;;24.16